createdAt,value
2022-09-12T00:01:31.179Z,15.30
2022-09-12T00:03:02.811Z,15.30
2022-09-12T00:04:34.551Z,15.30
2022-09-12T00:06:11.967Z,15.30
2022-09-12T00:07:43.620Z,15.30
2022-09-12T00:09:15.475Z,15.30
2022-09-12T00:10:47.108Z,15.30
2022-09-12T00:12:18.782Z,15.20
2022-09-12T00:13:50.491Z,15.30
2022-09-12T00:15:22.295Z,15.20
2022-09-12T00:16:58.553Z,15.20
2022-09-12T00:18:30.395Z,15.20
2022-09-12T00:20:02.740Z,15.20
2022-09-12T00:21:35.920Z,15.30
2022-09-12T00:23:07.628Z,15.30
2022-09-12T00:24:40.781Z,15.20
2022-09-12T00:26:13.129Z,15.20
2022-09-12T00:27:44.760Z,15.20
2022-09-12T00:29:18.684Z,15.20
2022-09-12T00:30:50.311Z,15.20
2022-09-12T00:32:22.212Z,15.20
2022-09-12T00:33:56.817Z,15.20
2022-09-12T00:35:28.455Z,15.10
2022-09-12T00:37:00.100Z,15.10
2022-09-12T00:38:31.836Z,15.10
2022-09-12T00:40:03.937Z,15.10
2022-09-12T00:41:38.603Z,15.10
2022-09-12T00:43:30.103Z,15.10
2022-09-12T00:45:01.790Z,15.10
2022-09-12T00:47:02.347Z,15.10
2022-09-12T00:48:50.267Z,15.10
2022-09-12T00:50:21.959Z,15.00
2022-09-12T00:52:01.227Z,15.00
2022-09-12T00:53:32.908Z,15.00
2022-09-12T00:55:24.788Z,15.00
2022-09-12T00:57:01.308Z,15.00
2022-09-12T00:58:40.632Z,15.00
2022-09-12T01:00:15.654Z,15.00
2022-09-12T01:01:49.750Z,15.00
2022-09-12T01:03:23.700Z,14.90
2022-09-12T01:04:55.834Z,15.00
2022-09-12T01:06:41.328Z,14.90
2022-09-12T01:08:13.266Z,14.90
2022-09-12T01:09:45.528Z,14.90
2022-09-12T01:11:19.453Z,14.90
2022-09-12T01:12:51.200Z,14.90
2022-09-12T01:14:22.898Z,14.90
2022-09-12T01:15:55.740Z,14.90
2022-09-12T01:17:38.838Z,14.90
2022-09-12T01:19:37.923Z,14.90
2022-09-12T01:21:23.705Z,14.80
2022-09-12T01:23:37.640Z,14.90
2022-09-12T01:25:38.213Z,14.90
2022-09-12T01:27:32.922Z,14.80
2022-09-12T01:29:37.281Z,14.80
2022-09-12T01:31:20.278Z,14.80
2022-09-12T01:33:32.477Z,14.80
2022-09-12T01:35:16.664Z,14.80
2022-09-12T01:37:25.077Z,14.80
2022-09-12T01:39:00.434Z,14.70
2022-09-12T01:40:44.094Z,14.70
2022-09-12T01:42:27.864Z,14.70
2022-09-12T01:44:24.008Z,14.70
2022-09-12T01:46:17.678Z,14.70
2022-09-12T01:47:51.169Z,14.70
2022-09-12T01:49:32.842Z,14.70
2022-09-12T01:51:15.345Z,14.70
2022-09-12T01:52:50.030Z,14.70
2022-09-12T01:54:29.749Z,14.60
2022-09-12T01:56:11.421Z,14.70
2022-09-12T01:58:00.462Z,14.70
2022-09-12T01:59:45.391Z,14.60
2022-09-12T02:01:24.366Z,14.70
2022-09-12T02:03:03.871Z,14.60
2022-09-12T02:05:00.317Z,14.60
2022-09-12T02:06:38.428Z,14.70
2022-09-12T02:08:17.083Z,14.60
2022-09-12T02:10:06.091Z,14.60
2022-09-12T02:11:43.361Z,14.60
2022-09-12T02:13:21.774Z,14.60
2022-09-12T02:14:58.903Z,14.60
2022-09-12T02:16:44.983Z,14.60
2022-09-12T02:18:18.432Z,14.60
2022-09-12T02:19:56.659Z,14.60
2022-09-12T02:21:32.796Z,14.60
2022-09-12T02:23:09.431Z,14.50
2022-09-12T02:24:45.898Z,14.50
2022-09-12T02:26:22.830Z,14.50
2022-09-12T02:28:09.262Z,14.50
2022-09-12T02:29:41.922Z,14.50
2022-09-12T02:31:16.914Z,14.50
2022-09-12T02:33:01.235Z,14.50
2022-09-12T02:34:50.619Z,14.50
2022-09-12T02:37:05.685Z,14.50
2022-09-12T02:38:48.476Z,14.50
2022-09-12T02:40:20.427Z,14.50
2022-09-12T02:41:54.748Z,14.50
2022-09-12T02:43:26.460Z,14.50
2022-09-12T02:44:58.387Z,14.50
2022-09-12T02:46:41.048Z,14.50
2022-09-12T02:48:24.063Z,14.40
2022-09-12T02:49:56.916Z,14.40
2022-09-12T02:51:28.829Z,14.40
2022-09-12T02:53:04.651Z,14.40
2022-09-12T02:54:38.076Z,14.40
2022-09-12T02:56:15.819Z,14.40
2022-09-12T02:57:47.452Z,14.40
2022-09-12T02:59:22.768Z,14.40
2022-09-12T03:01:26.287Z,14.40
2022-09-12T03:03:14.740Z,14.40
2022-09-12T03:05:12.888Z,14.40
2022-09-12T03:07:05.126Z,14.40
2022-09-12T03:08:50.883Z,14.30
2022-09-12T03:10:44.448Z,14.30
2022-09-12T03:12:25.702Z,14.30
2022-09-12T03:14:12.447Z,14.30
2022-09-12T03:16:11.197Z,14.30
2022-09-12T03:18:01.250Z,14.30
2022-09-12T03:19:49.273Z,14.30
2022-09-12T03:21:37.018Z,14.30
2022-09-12T03:23:31.299Z,14.30
2022-09-12T03:25:22.914Z,14.30
2022-09-12T03:27:11.062Z,14.30
2022-09-12T03:28:45.338Z,14.20
2022-09-12T03:30:17.210Z,14.30
2022-09-12T03:31:51.910Z,14.20
2022-09-12T03:33:25.922Z,14.20
2022-09-12T03:34:57.764Z,14.30
2022-09-12T03:36:30.338Z,14.20
2022-09-12T03:38:02.038Z,14.20
2022-09-12T03:39:33.878Z,14.20
2022-09-12T03:41:05.691Z,14.20
2022-09-12T03:42:38.259Z,14.30
2022-09-12T03:44:10.026Z,14.30
2022-09-12T03:45:41.880Z,14.20
2022-09-12T03:47:13.551Z,14.20
2022-09-12T03:48:45.294Z,14.20
2022-09-12T03:50:17.228Z,14.20
2022-09-12T03:51:48.824Z,14.20
2022-09-12T03:53:20.452Z,14.20
2022-09-12T03:54:52.195Z,14.20
2022-09-12T03:56:23.987Z,14.20
2022-09-12T03:57:55.992Z,14.20
2022-09-12T03:59:27.615Z,14.20
2022-09-12T04:00:59.728Z,14.20
2022-09-12T04:02:31.434Z,14.20
2022-09-12T04:04:03.267Z,14.20
2022-09-12T04:05:35.917Z,14.20
2022-09-12T04:07:07.497Z,14.20
2022-09-12T04:08:39.238Z,14.20
2022-09-12T04:10:10.940Z,14.20
2022-09-12T04:11:42.582Z,14.20
2022-09-12T04:13:14.277Z,14.20
2022-09-12T04:14:46.273Z,14.20
2022-09-12T04:16:18.608Z,14.20
2022-09-12T04:17:50.360Z,14.20
2022-09-12T04:19:21.993Z,14.20
2022-09-12T04:20:53.777Z,14.10
2022-09-12T04:22:25.425Z,14.10
2022-09-12T04:23:57.075Z,14.10
2022-09-12T04:25:32.102Z,14.10
2022-09-12T04:27:07.705Z,14.20
2022-09-12T04:28:40.581Z,14.20
2022-09-12T04:30:13.108Z,14.10
2022-09-12T04:31:44.850Z,14.20
2022-09-12T04:33:16.878Z,14.20
2022-09-12T04:34:49.041Z,14.20
2022-09-12T04:36:20.730Z,14.10
2022-09-12T04:37:52.505Z,14.20
2022-09-12T04:39:24.341Z,14.20
2022-09-12T04:40:56.994Z,14.20
2022-09-12T04:42:29.753Z,14.20
2022-09-12T04:44:04.281Z,14.20
2022-09-12T04:45:36.039Z,14.20
2022-09-12T04:47:07.885Z,14.20
2022-09-12T04:48:39.536Z,14.20
2022-09-12T04:50:11.165Z,14.20
2022-09-12T04:51:43.254Z,14.20
2022-09-12T04:53:14.892Z,14.20
2022-09-12T04:54:46.526Z,14.20
2022-09-12T04:56:19.556Z,14.20
2022-09-12T04:57:51.928Z,14.20
2022-09-12T04:59:24.408Z,14.20
2022-09-12T05:00:56.067Z,14.20
2022-09-12T05:02:28.933Z,14.20
2022-09-12T05:04:00.800Z,14.20
2022-09-12T05:05:32.427Z,14.20
2022-09-12T05:07:04.479Z,14.20
2022-09-12T05:08:36.467Z,14.20
2022-09-12T05:10:09.064Z,14.30
2022-09-12T05:13:34.978Z,14.20
2022-09-12T05:15:07.311Z,14.30
2022-09-12T05:16:39.040Z,14.20
2022-09-12T05:18:10.653Z,14.20
2022-09-12T05:19:42.378Z,14.30
2022-09-12T05:21:17.265Z,14.30
2022-09-12T05:22:48.928Z,14.30
2022-09-12T05:24:20.616Z,14.30
2022-09-12T05:25:53.246Z,14.30
2022-09-12T05:27:24.891Z,14.30
2022-09-12T05:28:56.864Z,14.30
2022-09-12T05:30:28.512Z,14.30
2022-09-12T05:32:00.184Z,14.30
2022-09-12T05:33:33.314Z,14.30
2022-09-12T05:35:05.214Z,14.30
2022-09-12T05:36:37.252Z,14.30
2022-09-12T05:38:08.901Z,14.30
2022-09-12T05:39:41.106Z,14.30
2022-09-12T05:41:24.990Z,14.30
2022-09-12T05:42:57.553Z,14.30
2022-09-12T05:44:29.283Z,14.30
2022-09-12T05:46:08.982Z,14.30
2022-09-12T05:47:41.832Z,14.30
2022-09-12T05:49:14.494Z,14.40
2022-09-12T05:50:46.185Z,14.40
2022-09-12T05:52:17.837Z,14.40
2022-09-12T05:53:52.646Z,14.40
2022-09-12T05:55:24.532Z,14.40
2022-09-12T05:56:56.869Z,14.50
2022-09-12T05:58:28.715Z,14.40
2022-09-12T06:00:01.096Z,14.40
2022-09-12T06:01:34.997Z,14.50
2022-09-12T06:03:06.710Z,14.50
2022-09-12T06:04:40.822Z,14.50
2022-09-12T06:06:13.840Z,14.50
2022-09-12T06:07:48.457Z,14.50
2022-09-12T06:09:20.561Z,14.50
2022-09-12T06:11:01.695Z,14.60
2022-09-12T06:12:33.969Z,14.50
2022-09-12T06:14:05.605Z,14.60
2022-09-12T06:15:37.645Z,14.60
2022-09-12T06:17:09.301Z,14.60
2022-09-12T06:18:42.075Z,14.60
2022-09-12T06:20:13.853Z,14.60
2022-09-12T06:21:47.470Z,14.60
2022-09-12T06:23:19.120Z,14.60
2022-09-12T06:24:52.792Z,14.60
2022-09-12T06:26:29.108Z,14.60
2022-09-12T06:28:01.095Z,14.60
2022-09-12T06:29:32.683Z,14.60
2022-09-12T06:31:10.862Z,14.60
2022-09-12T06:32:42.891Z,14.60
2022-09-12T06:34:16.517Z,14.60
2022-09-12T06:35:48.284Z,14.60
2022-09-12T06:37:19.915Z,14.60
2022-09-12T06:38:57.067Z,14.60
2022-09-12T06:40:29.627Z,14.60
2022-09-12T06:42:01.262Z,14.70
2022-09-12T06:43:40.347Z,14.70
2022-09-12T06:45:11.991Z,14.70
2022-09-12T06:46:44.383Z,14.70
2022-09-12T06:48:16.423Z,14.70
2022-09-12T06:49:48.015Z,14.70
2022-09-12T06:51:20.426Z,14.70
2022-09-12T06:52:52.088Z,14.70
2022-09-12T06:54:23.878Z,14.70
2022-09-12T06:56:00.505Z,14.70
2022-09-12T06:57:36.203Z,14.70
2022-09-12T06:59:07.858Z,14.70
2022-09-12T07:00:39.991Z,14.70
2022-09-12T07:02:12.328Z,14.70
2022-09-12T07:03:48.858Z,14.70
2022-09-12T07:05:20.431Z,14.70
2022-09-12T07:06:52.131Z,14.70
2022-09-12T07:08:23.918Z,14.70
2022-09-12T07:09:57.542Z,14.70
2022-09-12T07:11:34.783Z,14.70
2022-09-12T07:13:06.421Z,14.70
2022-09-12T07:14:38.063Z,14.80
2022-09-12T07:16:10.480Z,14.80
2022-09-12T07:17:42.097Z,14.80
2022-09-12T07:19:13.738Z,14.80
2022-09-12T07:20:45.345Z,14.80
2022-09-12T07:22:16.989Z,14.80
2022-09-12T07:23:49.125Z,14.90
2022-09-12T07:25:20.732Z,14.90
2022-09-12T07:26:52.511Z,14.90
2022-09-12T07:28:25.423Z,14.90
2022-09-12T07:29:57.079Z,14.90
2022-09-12T07:31:29.501Z,14.90
2022-09-12T07:33:01.147Z,14.90
2022-09-12T07:34:33.395Z,14.90
2022-09-12T07:36:08.603Z,14.90
2022-09-12T07:37:40.201Z,14.90
2022-09-12T07:39:12.193Z,14.90
2022-09-12T07:40:43.981Z,15.00
2022-09-12T07:42:15.612Z,15.00
2022-09-12T07:43:48.362Z,15.00
2022-09-12T07:45:19.975Z,14.90
2022-09-12T07:46:52.214Z,15.00
2022-09-12T07:48:24.671Z,15.00
2022-09-12T07:49:56.813Z,15.00
2022-09-12T07:51:30.741Z,15.00
2022-09-12T07:53:03.827Z,15.00
2022-09-12T07:54:35.549Z,15.10
2022-09-12T07:56:10.153Z,15.10
2022-09-12T07:57:42.001Z,15.10
2022-09-12T07:59:13.633Z,15.20
2022-09-12T08:00:45.855Z,15.20
2022-09-12T08:02:17.895Z,15.20
2022-09-12T08:03:53.510Z,15.20
2022-09-12T08:05:25.483Z,15.30
2022-09-12T08:06:57.088Z,15.30
2022-09-12T08:08:29.385Z,15.30
2022-09-12T08:10:01.329Z,15.30
2022-09-12T08:11:32.995Z,15.40
2022-09-12T08:13:04.707Z,15.40
2022-09-12T08:14:36.360Z,15.50
2022-09-12T08:16:18.435Z,15.50
2022-09-12T08:17:50.224Z,15.50
2022-09-12T08:19:22.675Z,15.60
2022-09-12T08:21:05.885Z,15.60
2022-09-12T08:22:37.859Z,15.70
2022-09-12T08:24:12.353Z,15.70
2022-09-12T08:25:44.023Z,15.70
2022-09-12T08:27:16.589Z,15.70
2022-09-12T08:28:49.100Z,15.70
2022-09-12T08:30:20.821Z,15.80
2022-09-12T08:31:57.036Z,15.80
2022-09-12T08:33:35.948Z,15.80
2022-09-12T08:35:08.000Z,15.80
2022-09-12T08:36:40.873Z,15.80
2022-09-12T08:38:12.685Z,15.80
2022-09-12T08:39:44.458Z,15.80
2022-09-12T08:41:24.164Z,15.80
2022-09-12T08:43:07.945Z,15.80
2022-09-12T08:45:21.903Z,15.80
2022-09-12T08:47:10.854Z,15.80
2022-09-12T08:48:45.394Z,15.90
2022-09-12T08:50:20.460Z,16.00
2022-09-12T08:51:52.994Z,16.00
2022-09-12T08:53:28.118Z,16.00
2022-09-12T08:55:01.825Z,16.00
2022-09-12T08:56:37.533Z,16.10
2022-09-12T08:58:20.032Z,16.10
2022-09-12T08:59:52.867Z,16.20
2022-09-12T09:01:31.834Z,16.20
2022-09-12T09:03:36.818Z,16.20
2022-09-12T09:05:50.232Z,16.30
2022-09-12T09:07:34.046Z,16.40
2022-09-12T09:09:29.297Z,16.40
2022-09-12T09:11:13.265Z,16.50
2022-09-12T09:13:06.716Z,16.50
2022-09-12T09:15:03.283Z,16.50
2022-09-12T09:16:44.117Z,16.60
2022-09-12T09:18:23.624Z,16.60
2022-09-12T09:20:22.724Z,16.70
2022-09-12T09:22:06.293Z,16.70
2022-09-12T09:23:44.499Z,16.80
2022-09-12T09:25:22.992Z,16.90
2022-09-12T09:27:02.603Z,16.90
2022-09-12T09:28:37.437Z,16.90
2022-09-12T09:30:21.526Z,16.90
2022-09-12T09:31:57.580Z,16.90
2022-09-12T09:33:34.869Z,17.00
2022-09-12T09:35:39.118Z,17.00
2022-09-12T09:37:19.772Z,17.00
2022-09-12T09:39:04.114Z,17.10
2022-09-12T09:40:51.100Z,17.20
2022-09-12T09:42:44.528Z,17.20
2022-09-12T09:44:17.101Z,17.20
2022-09-12T09:45:49.871Z,17.30
2022-09-12T09:47:22.021Z,17.30
2022-09-12T09:48:54.901Z,17.40
2022-09-12T09:50:27.228Z,17.40
2022-09-12T09:52:00.977Z,17.40
2022-09-12T09:53:40.283Z,17.40
2022-09-12T09:55:23.220Z,17.50
2022-09-12T09:56:56.336Z,17.50
2022-09-12T09:58:32.907Z,17.70
2022-09-12T10:00:26.589Z,17.70
2022-09-12T10:02:24.093Z,17.80
2022-09-12T10:03:56.533Z,17.80
2022-09-12T10:05:28.792Z,17.80
2022-09-12T10:07:02.435Z,17.80
2022-09-12T10:08:36.470Z,17.80
2022-09-12T10:10:15.783Z,17.80
2022-09-12T10:11:48.781Z,18.00
2022-09-12T10:13:47.871Z,18.10
2022-09-12T10:15:27.884Z,18.10
2022-09-12T10:16:59.537Z,18.10
2022-09-12T10:18:42.376Z,18.20
2022-09-12T10:20:43.852Z,18.20
2022-09-12T10:22:23.403Z,18.30
2022-09-12T10:24:03.177Z,18.40
2022-09-12T10:25:34.849Z,18.40
2022-09-12T10:27:12.104Z,18.40
2022-09-12T10:28:53.960Z,18.40
2022-09-12T10:30:28.449Z,18.50
2022-09-12T10:32:04.793Z,18.50
2022-09-12T10:33:53.142Z,18.50
2022-09-12T10:35:30.878Z,18.60
2022-09-12T10:37:10.982Z,18.70
2022-09-12T10:38:51.017Z,18.70
2022-09-12T10:40:37.146Z,18.70
2022-09-12T10:42:14.843Z,18.80
2022-09-12T10:43:46.688Z,18.80
2022-09-12T10:45:26.260Z,18.80
2022-09-12T10:46:59.498Z,18.80
2022-09-12T10:48:32.688Z,18.80
2022-09-12T10:50:28.226Z,18.80
2022-09-12T10:52:23.495Z,18.80
2022-09-12T10:54:01.921Z,18.90
2022-09-12T10:55:35.567Z,19.00
2022-09-12T10:57:21.668Z,18.90
2022-09-12T10:59:31.138Z,18.90
2022-09-12T11:01:16.049Z,19.00
2022-09-12T11:03:30.386Z,19.00
2022-09-12T11:05:43.546Z,19.00
2022-09-12T11:07:31.100Z,19.00
2022-09-12T11:09:12.910Z,19.00
2022-09-12T11:10:47.274Z,19.10
2022-09-12T11:12:53.255Z,19.10
2022-09-12T11:14:52.499Z,19.20
2022-09-12T11:16:46.050Z,19.20
2022-09-12T11:18:31.354Z,19.20
2022-09-12T11:20:17.578Z,19.10
2022-09-12T11:22:14.868Z,19.10
2022-09-12T11:24:04.174Z,19.20
2022-09-12T11:25:52.928Z,19.20
2022-09-12T11:27:54.092Z,19.20
2022-09-12T11:29:48.633Z,19.20
2022-09-12T11:31:40.217Z,19.30
2022-09-12T11:33:45.093Z,19.30
2022-09-12T11:35:24.437Z,19.30
2022-09-12T11:37:18.058Z,19.40
2022-09-12T11:39:13.304Z,19.50
2022-09-12T11:41:09.912Z,19.50
2022-09-12T11:42:42.163Z,19.50
2022-09-12T11:44:25.411Z,19.50
2022-09-12T11:46:04.209Z,19.50
2022-09-12T11:47:37.219Z,19.60
2022-09-12T11:49:15.579Z,19.60
2022-09-12T11:50:47.217Z,19.70
2022-09-12T11:52:29.724Z,19.70
2022-09-12T11:54:32.627Z,19.70
2022-09-12T11:56:16.877Z,19.70
2022-09-12T11:57:50.444Z,19.80
2022-09-12T11:59:37.276Z,19.80
2022-09-12T12:01:19.083Z,19.90
2022-09-12T12:03:10.175Z,19.90
2022-09-12T12:05:14.130Z,19.90
2022-09-12T12:07:11.889Z,19.80
2022-09-12T12:08:46.082Z,19.70
2022-09-12T12:10:45.584Z,19.70
2022-09-12T12:12:24.132Z,19.80
2022-09-12T12:14:13.906Z,19.80
2022-09-12T12:15:49.740Z,19.80
2022-09-12T12:17:24.044Z,19.80
2022-09-12T12:19:01.580Z,19.80
2022-09-12T12:20:35.543Z,19.80
2022-09-12T12:22:28.605Z,19.80
2022-09-12T12:24:09.252Z,19.80
2022-09-12T12:25:52.866Z,19.80
2022-09-12T12:27:44.748Z,19.90
2022-09-12T12:29:16.356Z,19.90
2022-09-12T12:30:54.057Z,20.00
2022-09-12T12:32:26.294Z,20.00
2022-09-12T12:34:04.519Z,20.00
2022-09-12T12:35:39.165Z,20.00
2022-09-12T12:37:22.407Z,20.00
2022-09-12T12:38:54.120Z,20.10
2022-09-12T12:40:27.766Z,20.10
2022-09-12T12:42:00.596Z,20.10
2022-09-12T12:43:32.335Z,20.20
2022-09-12T12:45:29.772Z,20.10
2022-09-12T12:47:22.456Z,20.00
2022-09-12T12:48:59.865Z,20.00
2022-09-12T12:50:32.247Z,20.10
2022-09-12T12:52:03.931Z,20.10
2022-09-12T12:53:35.883Z,20.20
2022-09-12T12:55:15.724Z,20.20
2022-09-12T12:56:47.357Z,20.20
2022-09-12T12:58:40.521Z,20.30
2022-09-12T13:00:36.388Z,20.30
2022-09-12T13:02:21.709Z,20.40
2022-09-12T13:03:55.649Z,20.40
2022-09-12T13:05:30.467Z,20.40
2022-09-12T13:07:08.765Z,20.40
2022-09-12T13:09:04.063Z,20.40
2022-09-12T13:10:36.780Z,20.50
2022-09-12T13:12:23.580Z,20.50
2022-09-12T13:14:02.374Z,20.60
2022-09-12T13:15:37.174Z,20.50
2022-09-12T13:17:26.559Z,20.50
2022-09-12T13:19:06.751Z,20.50
2022-09-12T13:20:49.668Z,20.50
2022-09-12T13:22:24.481Z,20.60
2022-09-12T13:24:25.794Z,20.60
2022-09-12T13:26:00.415Z,20.60
2022-09-12T13:27:32.052Z,20.70
2022-09-12T13:29:18.505Z,20.70
2022-09-12T13:30:58.868Z,20.70
2022-09-12T13:32:30.655Z,20.80
2022-09-12T13:34:06.281Z,20.80
2022-09-12T13:35:49.126Z,20.80
2022-09-12T13:37:48.603Z,20.80
2022-09-12T13:39:35.562Z,20.80
2022-09-12T13:41:23.336Z,20.80
2022-09-12T13:43:15.206Z,20.80
2022-09-12T13:45:02.697Z,20.70
2022-09-12T13:46:34.763Z,20.80
2022-09-12T13:48:14.006Z,20.80
2022-09-12T13:49:46.910Z,20.70
2022-09-12T13:51:25.189Z,20.80
2022-09-12T13:53:00.190Z,20.90
2022-09-12T13:54:33.393Z,20.80
2022-09-12T13:56:05.133Z,20.90
2022-09-12T13:57:38.965Z,20.90
2022-09-12T13:59:13.233Z,20.90
2022-09-12T14:00:45.013Z,20.90
2022-09-12T14:02:21.933Z,20.90
2022-09-12T14:04:14.146Z,20.90
2022-09-12T14:05:55.459Z,20.80
2022-09-12T14:07:27.141Z,20.90
2022-09-12T14:09:01.186Z,20.90
2022-09-12T14:10:39.224Z,20.90
2022-09-12T14:12:34.752Z,20.90
2022-09-12T14:14:17.940Z,20.90
2022-09-12T14:15:54.932Z,21.00
2022-09-12T14:17:36.113Z,21.00
2022-09-12T14:19:10.100Z,21.00
2022-09-12T14:20:42.628Z,21.00
2022-09-12T14:22:18.026Z,21.00
2022-09-12T14:23:49.959Z,21.00
2022-09-12T14:25:25.055Z,21.00
2022-09-12T14:26:56.910Z,21.00
2022-09-12T14:28:30.114Z,21.00
2022-09-12T14:30:18.868Z,21.00
2022-09-12T14:32:02.470Z,21.00
2022-09-12T14:33:55.539Z,21.10
2022-09-12T14:35:27.212Z,21.10
2022-09-12T14:36:59.335Z,21.10
2022-09-12T14:38:42.823Z,21.10
2022-09-12T14:40:24.229Z,21.10
2022-09-12T14:42:17.460Z,21.20
2022-09-12T14:43:53.351Z,21.10
2022-09-12T14:45:31.189Z,21.10
2022-09-12T14:47:22.771Z,21.10
2022-09-12T14:49:08.133Z,21.20
2022-09-12T14:50:39.861Z,21.10
2022-09-12T14:52:23.417Z,21.20
2022-09-12T14:53:55.188Z,21.10
2022-09-12T14:55:32.500Z,21.10
2022-09-12T14:57:38.690Z,21.10
2022-09-12T14:59:33.293Z,21.20
2022-09-12T15:01:08.214Z,21.20
2022-09-12T15:02:42.242Z,21.20
2022-09-12T15:04:43.925Z,21.20
2022-09-12T15:06:30.066Z,21.20
2022-09-12T15:08:02.520Z,21.20
2022-09-12T15:09:34.482Z,21.20
2022-09-12T15:11:07.418Z,21.20
2022-09-12T15:12:39.029Z,21.20
2022-09-12T15:14:14.474Z,21.20
2022-09-12T15:15:49.641Z,21.20
2022-09-12T15:17:21.387Z,21.30
2022-09-12T15:18:52.977Z,21.30
2022-09-12T15:20:25.036Z,21.30
2022-09-12T15:21:57.441Z,21.20
2022-09-12T15:23:40.610Z,21.20
2022-09-12T15:25:13.306Z,21.20
2022-09-12T15:26:44.900Z,21.30
2022-09-12T15:28:22.029Z,21.20
2022-09-12T15:29:54.131Z,21.20
2022-09-12T15:31:28.625Z,21.20
2022-09-12T15:33:00.281Z,21.20
2022-09-12T15:34:32.664Z,21.20
2022-09-12T15:36:09.181Z,21.20
2022-09-12T15:37:40.900Z,21.10
2022-09-12T15:39:13.210Z,21.10
2022-09-12T15:40:51.021Z,21.10
2022-09-12T15:42:29.021Z,21.10
2022-09-12T15:44:01.100Z,21.20
2022-09-12T15:45:35.191Z,21.20
2022-09-12T15:47:08.526Z,21.20
2022-09-12T15:48:40.524Z,21.20
2022-09-12T15:50:12.658Z,21.20
2022-09-12T15:51:44.332Z,21.20
2022-09-12T15:53:17.719Z,21.20
2022-09-12T15:54:49.337Z,21.20
2022-09-12T15:56:23.030Z,21.20
2022-09-12T15:57:55.555Z,21.20
2022-09-12T15:59:27.231Z,21.20
2022-09-12T16:00:59.226Z,21.20
2022-09-12T16:02:30.906Z,21.20
2022-09-12T16:04:03.472Z,21.20
2022-09-12T16:05:35.371Z,21.20
2022-09-12T16:07:06.983Z,21.20
2022-09-12T16:08:38.679Z,21.20
2022-09-12T16:10:18.252Z,21.20
2022-09-12T16:11:50.208Z,21.20
2022-09-12T16:13:23.059Z,21.20
2022-09-12T16:14:54.716Z,21.20
2022-09-12T16:16:26.493Z,21.20
2022-09-12T16:17:58.276Z,21.20
2022-09-12T16:19:29.924Z,21.20
2022-09-12T16:21:01.546Z,21.20
2022-09-12T16:22:33.169Z,21.20
2022-09-12T16:24:05.223Z,21.30
2022-09-12T16:25:38.611Z,21.20
2022-09-12T16:27:10.291Z,21.20
2022-09-12T16:28:42.092Z,21.20
2022-09-12T16:30:13.787Z,21.20
2022-09-12T16:31:45.427Z,21.20
2022-09-12T16:33:17.059Z,21.20
2022-09-12T16:34:50.616Z,21.20
2022-09-12T16:36:22.670Z,21.20
2022-09-12T16:37:55.529Z,21.10
2022-09-12T16:39:27.164Z,21.20
2022-09-12T16:41:03.180Z,21.20
2022-09-12T16:42:35.651Z,21.20
2022-09-12T16:44:07.920Z,21.20
2022-09-12T16:45:39.723Z,21.20
2022-09-12T16:47:11.737Z,21.20
2022-09-12T16:48:52.073Z,21.10
2022-09-12T16:50:24.801Z,21.10
2022-09-12T16:51:56.417Z,21.20
2022-09-12T16:53:32.840Z,21.20
2022-09-12T16:55:04.928Z,21.10
2022-09-12T16:56:36.628Z,21.10
2022-09-12T16:58:08.253Z,21.10
2022-09-12T16:59:39.959Z,21.10
2022-09-12T17:01:20.481Z,21.10
2022-09-12T17:02:52.555Z,21.00
2022-09-12T17:04:24.495Z,21.00
2022-09-12T17:06:04.638Z,21.10
2022-09-12T17:07:36.431Z,21.10
2022-09-12T17:09:08.060Z,21.10
2022-09-12T17:10:41.033Z,21.10
2022-09-12T17:12:12.715Z,21.10
2022-09-12T17:14:04.547Z,21.10
2022-09-12T17:15:38.509Z,21.10
2022-09-12T17:17:10.160Z,21.10
2022-09-12T17:18:41.944Z,21.00
2022-09-12T17:20:13.622Z,21.00
2022-09-12T17:21:47.488Z,21.00
2022-09-12T17:23:19.126Z,21.00
2022-09-12T17:24:50.789Z,21.00
2022-09-12T17:26:22.637Z,20.90
2022-09-12T17:27:54.283Z,20.90
2022-09-12T17:29:25.996Z,20.90
2022-09-12T17:30:59.414Z,20.90
2022-09-12T17:32:31.059Z,20.90
2022-09-12T17:34:03.394Z,20.80
2022-09-12T17:35:35.873Z,20.80
2022-09-12T17:37:07.500Z,20.80
2022-09-12T17:38:39.861Z,20.80
2022-09-12T17:40:12.081Z,20.70
2022-09-12T17:41:45.655Z,20.70
2022-09-12T17:43:17.317Z,20.70
2022-09-12T17:44:50.368Z,20.60
2022-09-12T17:46:23.976Z,20.60
2022-09-12T17:47:55.720Z,20.60
2022-09-12T17:49:28.177Z,20.60
2022-09-12T17:51:13.436Z,20.50
2022-09-12T17:52:45.552Z,20.50
2022-09-12T17:54:18.861Z,20.50
2022-09-12T17:55:54.239Z,20.40
2022-09-12T17:57:26.156Z,20.40
2022-09-12T17:58:59.244Z,20.40
2022-09-12T18:00:49.923Z,20.40
2022-09-12T18:02:21.630Z,20.30
2022-09-12T18:03:55.494Z,20.30
2022-09-12T18:05:27.148Z,20.30
2022-09-12T18:07:00.235Z,20.30
2022-09-12T18:08:31.947Z,20.20
2022-09-12T18:10:03.836Z,20.20
2022-09-12T18:11:36.073Z,20.20
2022-09-12T18:13:07.793Z,20.20
2022-09-12T18:14:39.816Z,20.20
2022-09-12T18:16:13.198Z,20.20
2022-09-12T18:17:44.852Z,20.10
2022-09-12T18:19:17.548Z,20.10
2022-09-12T18:20:52.425Z,20.10
2022-09-12T18:22:24.084Z,20.10
2022-09-12T18:23:58.836Z,20.10
2022-09-12T18:25:30.472Z,20.00
2022-09-12T18:27:03.810Z,20.00
2022-09-12T18:28:38.215Z,20.10
2022-09-12T18:30:20.971Z,20.00
2022-09-12T18:31:53.539Z,20.00
2022-09-12T18:33:25.280Z,20.00
2022-09-12T18:34:56.877Z,19.90
2022-09-12T18:36:29.866Z,19.90
2022-09-12T18:38:01.478Z,19.90
2022-09-12T18:39:33.176Z,19.90
2022-09-12T18:41:13.303Z,19.90
2022-09-12T18:42:44.931Z,19.90
2022-09-12T18:44:16.856Z,19.80
2022-09-12T18:45:48.487Z,19.80
2022-09-12T18:47:20.121Z,19.80
2022-09-12T18:48:52.140Z,19.80
2022-09-12T18:50:24.521Z,19.80
2022-09-12T18:51:56.173Z,19.80
2022-09-12T18:53:27.788Z,19.80
2022-09-12T18:54:59.417Z,19.80
2022-09-12T18:56:32.917Z,19.70
2022-09-12T18:58:04.701Z,19.70
2022-09-12T18:59:36.336Z,19.70
2022-09-12T19:01:17.474Z,19.70
2022-09-12T19:02:49.142Z,19.60
2022-09-12T19:04:20.865Z,19.70
2022-09-12T19:05:53.173Z,19.60
2022-09-12T19:07:24.845Z,19.60
2022-09-12T19:08:57.692Z,19.60
2022-09-12T19:10:29.485Z,19.60
2022-09-12T19:12:01.298Z,19.60
2022-09-12T19:13:36.187Z,19.60
2022-09-12T19:15:09.702Z,19.60
2022-09-12T19:16:41.653Z,19.50
2022-09-12T19:18:13.277Z,19.50
2022-09-12T19:19:45.980Z,19.50
2022-09-12T19:21:22.077Z,19.50
2022-09-12T19:22:53.696Z,19.50
2022-09-12T19:24:25.468Z,19.50
2022-09-12T19:26:05.412Z,19.50
2022-09-12T19:27:37.826Z,19.50
2022-09-12T19:29:11.535Z,19.50
2022-09-12T19:30:53.422Z,19.40
2022-09-12T19:32:25.069Z,19.40
2022-09-12T19:34:01.183Z,19.40
2022-09-12T19:35:33.470Z,19.40
2022-09-12T19:37:05.186Z,19.50
2022-09-12T19:38:37.358Z,19.40
2022-09-12T19:40:09.361Z,19.40
2022-09-12T19:41:41.203Z,19.40
2022-09-12T19:43:12.849Z,19.40
2022-09-12T19:44:44.595Z,19.30
2022-09-12T19:46:18.265Z,19.30
2022-09-12T19:47:50.042Z,19.30
2022-09-12T19:49:21.663Z,19.30
2022-09-12T19:50:53.458Z,19.30
2022-09-12T19:52:27.590Z,19.30
2022-09-12T19:53:59.255Z,19.30
2022-09-12T19:55:30.991Z,19.30
2022-09-12T19:57:03.059Z,19.30
2022-09-12T19:58:40.934Z,19.30
2022-09-12T20:00:13.016Z,19.30
2022-09-12T20:01:44.730Z,19.30
2022-09-12T20:03:16.511Z,19.30
2022-09-12T20:04:48.306Z,19.30
2022-09-12T20:06:20.428Z,19.30
2022-09-12T20:07:52.116Z,19.20
2022-09-12T20:09:23.893Z,19.30
2022-09-12T20:10:57.192Z,19.20
2022-09-12T20:12:28.932Z,19.20
2022-09-12T20:14:00.655Z,19.30
2022-09-12T20:15:32.321Z,19.30
2022-09-12T20:17:04.019Z,19.30
2022-09-12T20:18:36.018Z,19.20
2022-09-12T20:20:11.934Z,19.20
2022-09-12T20:21:43.626Z,19.20
2022-09-12T20:23:15.255Z,19.20
2022-09-12T20:24:46.898Z,19.20
2022-09-12T20:26:20.088Z,19.20
2022-09-12T20:27:53.385Z,19.20
2022-09-12T20:29:26.678Z,19.20
2022-09-12T20:31:20.458Z,19.20
2022-09-12T20:32:52.123Z,19.10
2022-09-12T20:34:23.785Z,19.10
2022-09-12T20:36:01.879Z,19.10
2022-09-12T20:37:33.578Z,19.10
2022-09-12T20:39:05.252Z,19.10
2022-09-12T20:40:36.893Z,19.10
2022-09-12T20:42:08.632Z,19.10
2022-09-12T20:43:40.820Z,19.10
2022-09-12T20:45:12.476Z,19.10
2022-09-12T20:46:44.183Z,19.10
2022-09-12T20:48:15.939Z,19.10
2022-09-12T20:49:47.616Z,19.10
2022-09-12T20:51:20.745Z,19.00
2022-09-12T20:52:52.460Z,19.00